Time;durP1;ratioP1;P1;durP2;ratioP2;P2;SDS_P1;SDS_P2;PMS_P1;PMS_P2;Temp;Humidity;BMP_temperature;BMP_pressure;BME280_temperature;BME280_humidity;BME280_pressure;Samples;Min_cycle;Max_cycle;Signal;HPM_P1;HPM_P2
2020/12/10 00:01:09;;;;;;;27.75;10.60;;;;;;;-6.35;74.46;100385.59;3493880;28;20842;-41
2020/12/10 00:02:51;;;;;;;35.95;13.70;;;;;;;-6.38;74.58;100384.44;3492444;28;20079;-41
2020/12/10 00:04:32;;;;;;;41.05;16.48;;;;;;;-6.40;74.59;100386.81;3494472;28;20485;-41
2020/12/10 00:06:17;;;;;;;39.22;12.68;;;;;;;-6.44;74.71;100383.13;3492165;28;20052;-41
2020/12/10 00:07:58;;;;;;;27.35;10.77;;;;;;;-6.47;74.78;100382.81;3491856;28;20080;-41
2020/12/10 00:09:40;;;;;;;36.95;13.15;;;;;;;-6.48;74.76;100388.63;3492676;28;20048;-41
2020/12/10 00:11:21;;;;;;;43.50;15.77;;;;;;;-6.51;75.09;100390.00;3493758;28;20499;-41
2020/12/10 00:13:03;;;;;;;43.35;15.35;;;;;;;-6.53;75.00;100376.34;3494470;28;20135;-41
2020/12/10 00:14:45;;;;;;;30.17;10.95;;;;;;;-6.54;75.00;100377.06;3492113;28;20056;-52
2020/12/10 00:16:27;;;;;;;23.75;10.15;;;;;;;-6.57;75.03;100372.66;3493786;28;20056;-54
2020/12/10 00:18:08;;;;;;;22.70;10.68;;;;;;;-6.57;75.19;100371.75;3493115;28;20135;-41
2020/12/10 00:19:49;;;;;;;27.52;9.80;;;;;;;-6.59;75.37;100379.16;3492956;28;20080;-54
2020/12/10 00:21:31;;;;;;;26.75;9.65;;;;;;;-6.60;75.49;100374.88;3491580;28;20072;-52
2020/12/10 00:23:12;;;;;;;22.65;9.27;;;;;;;-6.60;75.59;100377.41;3493378;28;20080;-51
2020/12/10 00:24:54;;;;;;;23.20;9.63;;;;;;;-6.62;75.68;100367.16;3492059;28;20080;-55
2020/12/10 00:26:35;;;;;;;22.58;9.70;;;;;;;-6.62;75.79;100369.69;3494737;28;20434;-54
2020/12/10 00:28:17;;;;;;;19.27;9.02;;;;;;;-6.62;75.78;100371.34;3490545;28;20099;-41
2020/12/10 00:29:59;;;;;;;22.35;8.93;;;;;;;-6.63;75.68;100370.44;3495407;28;20079;-41
2020/12/10 00:31:40;;;;;;;24.67;10.20;;;;;;;-6.63;75.79;100374.59;3488512;28;20056;-53
2020/12/10 00:33:22;;;;;;;24.77;9.48;;;;;;;-6.64;75.92;100370.28;3495459;28;20059;-40
2020/12/10 00:35:05;;;;;;;21.15;8.65;;;;;;;-6.68;75.89;100353.97;3490465;28;20453;-41
2020/12/10 00:36:46;;;;;;;16.90;8.75;;;;;;;-6.67;75.94;100362.44;3495491;28;20429;-41
2020/12/10 00:38:28;;;;;;;23.13;9.25;;;;;;;-6.70;76.12;100365.56;3488937;28;20080;-40
2020/12/10 00:40:10;;;;;;;22.58;8.57;;;;;;;-6.71;75.99;100362.88;3495299;28;20051;-52
2020/12/10 00:41:55;;;;;;;21.95;9.05;;;;;;;-6.72;76.16;100356.97;3490675;28;20082;-55
2020/12/10 00:43:37;;;;;;;25.38;9.18;;;;;;;-6.74;76.20;100358.47;3495084;28;20076;-41
2020/12/10 00:45:18;;;;;;;24.92;9.20;;;;;;;-6.73;76.28;100364.38;3489619;28;20086;-53
2020/12/10 00:46:59;;;;;;;23.35;9.07;;;;;;;-6.75;76.34;100360.84;3494643;28;20044;-51
2020/12/10 00:48:42;;;;;;;20.83;9.05;;;;;;;-6.75;76.34;100358.31;3490138;28;20131;-53
2020/12/10 00:50:23;;;;;;;19.50;8.23;;;;;;;-6.76;76.15;100354.00;3494465;28;20079;-52
2020/12/10 00:52:05;;;;;;;25.15;9.40;;;;;;;-6.76;76.45;100348.97;3491884;28;20493;-54
2020/12/10 00:53:46;;;;;;;23.15;8.40;;;;;;;-6.77;76.39;100343.03;3493920;28;20052;-41
2020/12/10 00:55:28;;;;;;;23.10;9.65;;;;;;;-6.78;76.47;100346.31;3493468;28;20113;-52
2020/12/10 00:57:10;;;;;;;18.80;7.82;;;;;;;-6.78;76.50;100342.88;3491163;28;20049;-51
2020/12/10 00:58:52;;;;;;;21.50;8.57;;;;;;;-6.81;76.45;100339.34;3492224;28;20523;-41
2020/12/10 01:00:33;;;;;;;23.80;9.73;;;;;;;-6.82;76.42;100345.16;3491673;28;20045;-40
2020/12/10 01:02:14;;;;;;;20.10;8.73;;;;;;;-6.83;76.52;100345.00;3491111;28;20091;-41
2020/12/10 01:03:56;;;;;;;22.33;8.95;;;;;;;-6.85;76.38;100352.44;3492389;28;20052;-41
2020/12/10 01:05:38;;;;;;;22.20;8.52;;;;;;;-6.87;76.42;100343.84;3493451;28;20056;-41
2020/12/10 01:07:19;;;;;;;21.35;7.90;;;;;;;-6.88;76.42;100344.56;3493488;28;20041;-40
2020/12/10 01:09:01;;;;;;;20.08;8.32;;;;;;;-6.88;76.55;100343.69;3493665;28;20076;-55
2020/12/10 01:10:42;;;;;;;24.70;9.73;;;;;;;-6.90;76.56;100347.72;3490314;28;20566;-40
2020/12/10 01:12:24;;;;;;;25.58;8.95;;;;;;;-6.91;76.65;100345.91;3493304;28;20049;-41
2020/12/10 01:14:06;;;;;;;18.63;8.45;;;;;;;-6.91;76.73;100353.47;3491017;28;20779;-54
2020/12/10 01:15:47;;;;;;;16.25;8.13;;;;;;;-6.93;76.74;100347.41;3492748;28;20134;-40
2020/12/10 01:17:29;;;;;;;18.92;8.77;;;;;;;-6.94;76.78;100348.16;3492253;28;20054;-41
2020/12/10 01:19:11;;;;;;;22.27;8.93;;;;;;;-6.94;76.84;100353.19;3492386;28;20048;-52
2020/12/10 01:20:52;;;;;;;22.95;8.77;;;;;;;-6.94;76.77;100345.63;3491257;28;20060;-41
2020/12/10 01:22:34;;;;;;;25.35;9.50;;;;;;;-6.95;76.78;100343.88;3494022;28;20048;-40
2020/12/10 01:24:15;;;;;;;21.95;8.32;;;;;;;-6.94;76.76;100345.63;3490950;28;20532;-41
2020/12/10 01:25:57;;;;;;;20.70;8.95;;;;;;;-6.94;76.71;100345.63;3494689;28;20052;-41
2020/12/10 01:27:38;;;;;;;21.90;8.20;;;;;;;-6.94;76.84;100343.09;3490287;28;20064;-41
2020/12/10 01:29:21;;;;;;;20.55;7.80;;;;;;;-6.94;76.75;100343.09;3494623;28;20046;-54
2020/12/10 01:31:03;;;;;;;18.02;7.82;;;;;;;-6.95;76.63;100336.31;3487546;28;20343;-53
2020/12/10 01:32:45;;;;;;;18.48;7.88;;;;;;;-6.96;76.79;100339.56;3492957;28;20048;-41
2020/12/10 01:34:26;;;;;;;20.85;7.93;;;;;;;-6.96;76.67;100327.81;3491456;28;20071;-52
2020/12/10 01:36:07;;;;;;;22.30;8.45;;;;;;;-6.96;76.58;100330.34;3494789;28;20052;-51
2020/12/10 01:37:49;;;;;;;20.63;8.45;;;;;;;-6.97;76.55;100333.63;3488019;28;20121;-51
2020/12/10 01:39:30;;;;;;;15.82;7.68;;;;;;;-6.96;76.54;100326.94;3495060;28;20049;-52
2020/12/10 01:41:12;;;;;;;20.83;8.93;;;;;;;-6.98;76.43;100334.38;3492192;28;20086;-52
2020/12/10 01:42:54;;;;;;;17.88;7.28;;;;;;;-6.98;76.76;100330.97;3494509;28;20505;-55
2020/12/10 01:44:36;;;;;;;22.27;8.20;;;;;;;-6.98;76.64;100336.00;3489862;28;20044;-40
2020/12/10 01:46:17;;;;;;;21.20;9.40;;;;;;;-7.00;76.63;100326.66;3493178;28;20214;-41
2020/12/10 01:47:59;;;;;;;21.98;9.15;;;;;;;-6.99;76.43;100337.66;3487245;28;20045;-51
2020/12/10 01:49:40;;;;;;;21.52;9.00;;;;;;;-6.99;76.50;100340.16;3492602;28;20041;-40
2020/12/10 01:51:22;;;;;;;24.90;9.15;;;;;;;-6.99;76.59;100337.66;3487641;28;20490;-40
2020/12/10 01:53:03;;;;;;;21.67;8.02;;;;;;;-7.01;76.58;100340.03;3492045;28;20144;-51
2020/12/10 01:54:45;;;;;;;19.67;8.63;;;;;;;-7.01;76.54;100342.53;3491468;28;20474;-40
2020/12/10 01:56:27;;;;;;;19.08;8.23;;;;;;;-7.01;76.50;100342.53;3493169;28;20048;-41
2020/12/10 01:58:09;;;;;;;17.70;8.38;;;;;;;-7.02;76.51;100334.84;3492733;28;20072;-40
2020/12/10 01:59:51;;;;;;;19.77;8.43;;;;;;;-7.03;76.64;100344.03;3495739;28;20082;-54
2020/12/10 02:01:33;;;;;;;24.42;8.73;;;;;;;-7.03;76.68;100343.13;3494798;28;20493;-55
2020/12/10 02:03:15;;;;;;;22.58;9.23;;;;;;;-7.03;76.67;100340.59;3494369;28;20047;-55
2020/12/10 02:04:57;;;;;;;26.05;9.02;;;;;;;-7.02;76.66;100333.19;3494714;28;20629;-41
2020/12/10 02:06:39;;;;;;;18.73;7.90;;;;;;;-7.01;76.57;100334.09;3494462;28;20603;-55
2020/12/10 02:08:20;;;;;;;19.75;8.18;;;;;;;-7.02;76.59;100327.28;3494224;28;20044;-52
2020/12/10 02:10:02;;;;;;;19.30;7.95;;;;;;;-7.01;76.57;100331.59;3491434;28;20453;-53
2020/12/10 02:11:43;;;;;;;25.50;8.40;;;;;;;-7.03;76.49;100323.88;3494432;28;20083;-51
2020/12/10 02:13:25;;;;;;;20.73;8.52;;;;;;;-7.04;76.48;100323.72;3494137;28;20150;-40
2020/12/10 02:15:07;;;;;;;20.92;8.57;;;;;;;-7.05;76.59;100324.44;3496338;28;20047;-54
2020/12/10 02:16:53;;;;;;;20.17;8.52;;;;;;;-7.06;nan;100325.22;3493555;28;20493;-40
2020/12/10 02:18:35;;;;;;;18.58;7.78;;;;;;;-7.09;76.60;100320.75;3493605;28;20059;-40
2020/12/10 02:20:17;;;;;;;24.23;8.95;;;;;;;-7.09;76.72;100312.31;3493536;28;20049;-54
2020/12/10 02:21:59;;;;;;;19.92;8.57;;;;;;;-7.11;76.63;100303.72;3496473;28;20428;-41
2020/12/10 02:23:41;;;;;;;22.55;8.57;;;;;;;-7.12;76.87;100305.34;3491869;28;20279;-41
2020/12/10 02:25:22;;;;;;;23.17;9.52;;;;;;;-7.12;76.93;100304.47;3496608;28;20055;-40
2020/12/10 02:27:04;;;;;;;23.75;8.57;;;;;;;-7.12;77.01;100299.41;3493456;28;20048;-40
2020/12/10 02:28:46;;;;;;;22.35;9.60;;;;;;;-7.14;77.05;100304.31;3496033;28;20054;-40
2020/12/10 02:30:28;;;;;;;20.67;8.38;;;;;;;-7.15;77.04;100300.03;3492245;28;20083;-42
2020/12/10 02:32:10;;;;;;;22.33;8.48;;;;;;;-7.16;77.12;100285.66;3496545;28;20082;-51
2020/12/10 02:33:51;;;;;;;20.30;8.38;;;;;;;-7.18;77.18;100292.19;3492468;28;20093;-55
2020/12/10 02:35:35;;;;;;;16.50;7.90;;;;;;;-7.19;77.11;100290.38;3496955;28;20079;-55
2020/12/10 02:37:16;;;;;;;17.17;7.47;;;;;;;-7.20;77.26;100288.63;3492182;28;20068;-54
2020/12/10 02:38:58;;;;;;;26.38;8.80;;;;;;;-7.21;77.30;100284.31;3496421;28;20513;-41
2020/12/10 02:40:42;;;;;;;17.23;7.55;;;;;;;-7.21;77.32;100286.84;3492185;28;20052;-40
2020/12/10 02:42:23;;;;;;;20.63;8.90;;;;;;;-7.20;77.31;100288.63;3494354;28;20516;-41
2020/12/10 02:44:05;;;;;;;22.42;8.50;;;;;;;-7.23;77.12;100281.66;3491760;28;20106;-53
2020/12/10 02:45:47;;;;;;;19.00;8.40;;;;;;;-7.22;77.16;100285.97;3496237;28;20146;-40
2020/12/10 02:47:28;;;;;;;24.30;8.68;;;;;;;-7.23;77.14;100281.66;3494325;28;20045;-40
2020/12/10 02:49:09;;;;;;;19.88;8.18;;;;;;;-7.24;77.12;100279.00;3495902;28;20055;-55
2020/12/10 02:50:51;;;;;;;22.27;8.50;;;;;;;-7.24;77.05;100277.38;3492691;28;20079;-54
2020/12/10 02:52:32;;;;;;;23.67;8.98;;;;;;;-7.25;77.08;100279.75;3494724;28;20501;-55
2020/12/10 02:54:14;;;;;;;18.98;8.02;;;;;;;-7.25;77.02;100272.19;3494169;28;20044;-54
2020/12/10 02:55:56;;;;;;;18.63;7.80;;;;;;;-7.26;76.96;100273.84;3495254;28;20048;-40
2020/12/10 02:57:38;;;;;;;19.45;7.85;;;;;;;-7.27;76.99;100282.13;3495101;28;20048;-40
2020/12/10 02:59:19;;;;;;;18.77;7.85;;;;;;;-7.27;77.08;100277.09;3491690;28;20083;-52
2020/12/10 03:01:00;;;;;;;19.98;7.68;;;;;;;-7.26;77.15;100277.97;3494253;28;20079;-54
2020/12/10 03:02:42;;;;;;;20.63;7.72;;;;;;;-7.27;77.11;100276.19;3490198;28;20460;-55
2020/12/10 03:04:24;;;;;;;26.02;9.02;;;;;;;-7.28;77.11;100280.34;3494102;28;20055;-55
2020/12/10 03:06:06;;;;;;;23.45;9.30;;;;;;;-7.29;77.10;100278.56;3493110;28;20091;-40
2020/12/10 03:07:48;;;;;;;26.17;9.45;;;;;;;-7.28;77.10;100276.94;3494348;28;20059;-39
2020/12/10 03:09:30;;;;;;;19.20;7.75;;;;;;;-7.29;77.02;100272.66;3492996;28;20524;-39
2020/12/10 03:11:11;;;;;;;22.48;8.40;;;;;;;-7.29;77.20;100277.69;3493895;28;20118;-54
2020/12/10 03:12:53;;;;;;;20.58;8.02;;;;;;;-7.30;77.24;100276.78;3495038;28;20048;-54
2020/12/10 03:14:34;;;;;;;21.25;9.20;;;;;;;-7.30;77.17;100281.81;3494392;28;20493;-39
2020/12/10 03:16:16;;;;;;;19.73;8.63;;;;;;;-7.31;77.30;100284.19;3492454;28;20063;-40
2020/12/10 03:17:57;;;;;;;23.58;9.65;;;;;;;-7.31;77.26;100284.19;3494304;28;20049;-39
2020/12/10 03:19:39;;;;;;;15.32;6.30;;;;;;;-7.33;77.20;100283.19;3492808;28;20072;-40
2020/12/10 03:21:20;;;;;;;21.38;8.60;;;;;;;-7.33;77.27;100294.13;3494604;28;20424;-40
2020/12/10 03:23:02;;;;;;;28.02;9.38;;;;;;;-7.34;77.25;100288.97;3489847;28;20139;-39
2020/12/10 03:24:44;;;;;;;20.08;9.15;;;;;;;-7.36;77.45;100281.28;3495062;28;20467;-51
2020/12/10 03:26:25;;;;;;;24.27;9.85;;;;;;;-7.38;77.41;100273.56;3492121;28;20087;-53
2020/12/10 03:28:07;;;;;;;22.58;9.85;;;;;;;-7.40;77.40;100276.66;3495251;28;20044;-39
2020/12/10 03:29:48;;;;;;;23.90;9.38;;;;;;;-7.42;77.54;100271.50;3492764;28;20049;-51
2020/12/10 03:31:30;;;;;;;22.90;8.60;;;;;;;-7.43;77.47;100272.28;3494966;28;20048;-51
2020/12/10 03:33:12;;;;;;;25.42;9.55;;;;;;;-7.44;77.58;100267.97;3492191;28;20138;-51
2020/12/10 03:34:53;;;;;;;24.15;9.02;;;;;;;-7.44;77.53;100269.59;3494720;28;20077;-53
2020/12/10 03:36:47;;;;;;;20.23;7.60;;;;;;;-7.44;77.62;100262.03;3493620;28;20068;-51
2020/12/10 03:38:28;;;;;;;20.33;8.00;;;;;;;-7.46;77.69;100261.03;3494273;28;20048;-39
2020/12/10 03:40:11;;;;;;;20.58;8.20;;;;;;;-7.47;77.69;100266.78;3489194;28;20048;-54
2020/12/10 03:41:54;;;;;;;23.10;9.23;;;;;;;-7.47;77.80;100259.22;3496070;28;20052;-52
2020/12/10 03:43:35;;;;;;;19.20;8.03;;;;;;;-7.48;77.90;100265.03;3490553;28;20048;-53
2020/12/10 03:45:16;;;;;;;24.27;8.20;;;;;;;-7.48;77.93;100263.41;3495809;28;20118;-39
2020/12/10 03:46:58;;;;;;;24.30;9.48;;;;;;;-7.47;78.02;100261.75;3490375;28;20111;-39
2020/12/10 03:48:40;;;;;;;17.27;8.23;;;;;;;-7.46;78.13;100256.84;3495749;28;20131;-40
2020/12/10 03:50:21;;;;;;;15.95;6.63;;;;;;;-7.45;78.16;100258.66;3493159;28;20048;-53
2020/12/10 03:52:03;;;;;;;22.85;8.23;;;;;;;-7.43;78.31;100253.75;3493427;28;20410;-54
2020/12/10 03:53:44;;;;;;;26.55;8.73;;;;;;;-7.42;78.36;100247.97;3489627;28;20053;-54
2020/12/10 03:55:26;;;;;;;20.75;8.75;;;;;;;-7.41;78.46;100250.59;3494951;28;20154;-53
2020/12/10 03:57:08;;;;;;;21.95;8.82;;;;;;;-7.40;78.35;100247.34;3489717;28;20086;-53
2020/12/10 03:58:49;;;;;;;22.27;8.70;;;;;;;-7.38;78.51;100243.31;3495425;28;20057;-51
2020/12/10 04:00:31;;;;;;;23.73;8.35;;;;;;;-7.36;78.39;100235.91;3492172;28;20044;-55
2020/12/10 04:02:12;;;;;;;17.70;8.45;;;;;;;-7.33;78.40;100237.81;3494740;28;20105;-54
2020/12/10 04:03:54;;;;;;;21.42;7.97;;;;;;;-7.31;78.49;100248.91;3493303;28;20060;-52
2020/12/10 04:05:35;;;;;;;21.88;9.10;;;;;;;-7.29;78.48;100229.81;3494733;28;20080;-51
2020/12/10 04:07:16;;;;;;;21.77;7.63;;;;;;;-7.27;78.51;100226.69;3493403;28;20072;-54
2020/12/10 04:08:58;;;;;;;21.17;8.57;;;;;;;-7.25;78.47;100221.78;3493441;28;20040;-54
2020/12/10 04:10:40;;;;;;;28.70;10.20;;;;;;;-7.22;78.52;100220.44;3493080;28;20464;-53
2020/12/10 04:12:22;;;;;;;19.15;8.07;;;;;;;-7.20;78.56;100211.38;3491674;28;20103;-54
2020/12/10 04:14:03;;;;;;;26.15;10.30;;;;;;;-7.16;78.41;100206.63;3493677;28;20501;-54
2020/12/10 04:15:45;;;;;;;21.23;8.82;;;;;;;-7.14;78.54;100208.53;3492372;28;20057;-54
2020/12/10 04:17:26;;;;;;;25.20;9.32;;;;;;;-7.09;78.52;100211.47;3493925;28;20162;-53
2020/12/10 04:19:08;;;;;;;21.33;9.13;;;;;;;-7.08;78.40;100213.22;3492390;28;20102;-51
2020/12/10 04:20:49;;;;;;;20.92;8.95;;;;;;;-7.07;78.32;100208.34;3492854;28;20520;-53
2020/12/10 04:22:31;;;;;;;27.80;9.52;;;;;;;-7.04;78.50;100208.63;3492132;28;20061;-55
2020/12/10 04:24:12;;;;;;;20.10;8.32;;;;;;;-7.00;78.51;100210.66;3493841;28;20536;-39
2020/12/10 04:25:55;;;;;;;22.83;8.80;;;;;;;-6.98;78.41;100223.41;3492379;28;20095;-39
2020/12/10 04:27:36;;;;;;;21.48;8.95;;;;;;;-6.95;78.24;100215.25;3494813;28;20049;-39
2020/12/10 04:29:18;;;;;;;20.50;8.35;;;;;;;-6.93;78.38;100213.75;3490789;28;20073;-39
2020/12/10 04:30:59;;;;;;;26.25;9.98;;;;;;;-6.88;78.36;100222.63;3493813;28;20060;-39
2020/12/10 04:32:40;;;;;;;22.30;9.05;;;;;;;-6.86;78.36;100219.50;3491460;28;20048;-40
2020/12/10 04:34:22;;;;;;;23.05;8.80;;;;;;;-6.84;78.22;100210.41;3493807;28;20190;-54
2020/12/10 04:36:04;;;;;;;20.27;8.23;;;;;;;-6.81;78.40;100222.44;3490747;28;20065;-53
2020/12/10 04:37:45;;;;;;;14.65;7.13;;;;;;;-6.78;78.37;100229.38;3494291;28;20076;-53
2020/12/10 04:39:27;;;;;;;24.05;8.63;;;;;;;-6.77;78.39;100232.06;3491087;28;20045;-40
2020/12/10 04:41:09;;;;;;;17.45;7.65;;;;;;;-6.74;78.31;100229.81;3495269;28;20056;-40
2020/12/10 04:42:53;;;;;;;14.07;6.78;;;;;;;-6.71;78.23;100227.59;3489881;28;20048;-40
2020/12/10 04:44:34;;;;;;;;;;;;;;;-6.69;78.23;100218.50;3494138;28;20051;-40
2020/12/10 04:46:19;;;;;;;21.25;8.38;;;;;;;-6.66;78.15;100217.88;3491587;28;19982;-40
2020/12/10 04:48:01;;;;;;;23.75;9.30;;;;;;;-6.64;78.13;100213.84;3493203;28;20049;-40
2020/12/10 04:49:43;;;;;;;23.13;9.38;;;;;;;-6.61;78.21;100221.72;3492013;28;20080;-55
2020/12/10 04:51:27;;;;;;;26.33;9.45;;;;;;;-6.60;78.11;100215.94;3492130;28;20080;-55
2020/12/10 04:53:10;;;;;;;22.67;9.35;;;;;;;-6.59;78.02;100215.16;3491611;28;20468;-51
2020/12/10 04:54:52;;;;;;;25.48;9.32;;;;;;;-6.56;78.03;100212.03;3491659;28;20045;-40
2020/12/10 04:56:34;;;;;;;22.48;9.80;;;;;;;-6.54;78.11;100208.00;3492674;28;20052;-41
2020/12/10 04:58:15;;;;;;;24.77;8.90;;;;;;;-6.52;78.05;100206.50;3492493;28;20498;-42
2020/12/10 04:59:56;;;;;;;21.95;9.68;;;;;;;-6.52;77.95;100214.97;3493040;28;20588;-41
2020/12/10 05:01:38;;;;;;;25.48;9.07;;;;;;;-6.51;77.95;100214.22;3490444;28;20099;-40
2020/12/10 05:03:20;;;;;;;21.13;8.00;;;;;;;-6.50;77.99;100203.38;3491564;28;20052;-41
2020/12/10 05:05:25;;;;;;;23.92;9.48;;;;;;;-6.49;78.04;100205.16;3490160;28;20553;-41
2020/12/10 05:07:07;;;;;;;25.23;9.68;;;;;;;-6.46;78.16;100209.59;3492976;28;20572;-54
2020/12/10 05:08:48;;;;;;;27.40;9.85;;;;;;;-6.45;78.05;100207.22;3490795;28;20079;-52
2020/12/10 05:10:42;;;;;;;25.33;10.23;;;;;;;-6.44;78.16;100206.44;3493535;28;20498;-43
2020/12/10 05:12:24;;;;;;;27.27;10.13;;;;;;;-6.42;78.11;100196.50;3489042;28;20048;-41
2020/12/10 05:14:05;;;;;;;29.30;9.90;;;;;;;-6.39;78.13;100203.44;3494920;28;20086;-42
2020/12/10 05:15:47;;;;;;;18.85;8.35;;;;;;;-6.38;78.20;100207.75;3490319;28;20520;-40
2020/12/10 05:17:29;;;;;;;27.00;10.88;;;;;;;-6.36;78.21;100208.75;3494556;28;20051;-41
2020/12/10 05:19:18;;;;;;;28.50;10.18;;;;;;;-6.36;78.17;100211.28;3489981;28;20071;-53
2020/12/10 05:21:00;;;;;;;18.67;9.60;;;;;;;-6.33;78.27;100221.66;3494031;28;20453;-55
2020/12/10 05:22:45;;;;;;;23.40;9.20;;;;;;;-6.31;78.32;100221.03;3490709;28;20048;-41
2020/12/10 05:24:26;;;;;;;22.05;10.23;;;;;;;-6.29;78.11;100229.66;3490571;28;20199;-41
2020/12/10 05:26:10;;;;;;;24.52;9.82;;;;;;;-6.29;77.96;100221.19;3492000;28;20139;-41
2020/12/10 05:28:00;;;;;;;22.50;10.23;;;;;;;-6.28;78.01;100221.31;3493111;28;20071;-41
2020/12/10 05:29:41;;;;;;;23.42;9.23;;;;;;;-6.26;78.28;100221.44;3491032;28;20044;-41
2020/12/10 05:31:23;;;;;;;23.95;9.50;;;;;;;-6.23;78.25;100226.78;3490022;28;20108;-40
2020/12/10 05:33:08;;;;;;;20.70;9.13;;;;;;;-6.21;78.34;100235.38;3493725;28;20048;-40
2020/12/10 05:34:50;;;;;;;24.00;8.80;;;;;;;-6.18;78.30;100232.22;3495885;28;20049;-41
2020/12/10 05:36:32;;;;;;;26.58;9.63;;;;;;;-6.18;78.28;100230.59;3495704;28;20041;-52
2020/12/10 05:38:14;;;;;;;15.68;6.68;;;;;;;-6.16;78.20;100235.78;3493828;28;20048;-53
2020/12/10 05:39:59;;;;;;;24.38;9.73;;;;;;;-6.14;78.11;100236.81;3496308;28;20053;-52
2020/12/10 05:41:43;;;;;;;24.98;9.57;;;;;;;-6.13;78.11;100238.56;3492889;28;20464;-55
2020/12/10 05:43:25;;;;;;;23.80;10.13;;;;;;;-6.12;78.06;100230.25;3495841;28;20497;-51
2020/12/10 05:45:12;;;;;;;22.35;9.77;;;;;;;-6.11;77.83;100229.47;3492434;28;20084;-53
2020/12/10 05:47:03;;;;;;;21.63;8.88;;;;;;;-6.12;78.00;100221.03;3497069;28;20501;-52
2020/12/10 05:48:46;;;;;;;23.55;9.70;;;;;;;-6.10;78.17;100224.56;3490335;28;20049;-51
2020/12/10 05:50:29;;;;;;;22.17;9.63;;;;;;;-6.08;78.00;100237.34;3496924;28;20554;-41
2020/12/10 05:52:24;;;;;;;23.65;9.75;;;;;;;-6.07;77.99;100231.53;3492844;28;20420;-41
2020/12/10 05:54:09;;;;;;;17.92;7.78;;;;;;;-6.05;77.98;100232.56;3492066;28;20398;-41
2020/12/10 05:55:52;;;;;;;22.17;8.57;;;;;;;-6.03;78.00;100225.13;3494989;28;20144;-41
2020/12/10 05:57:33;;;;;;;25.58;10.05;;;;;;;-6.02;78.02;100222.75;3494627;28;20077;-41
2020/12/10 05:59:15;;;;;;;31.80;10.82;;;;;;;-6.01;78.08;100223.63;3494124;28;20273;-40
2020/12/10 06:00:58;;;;;;;25.73;9.55;;;;;;;-5.98;78.18;100222.25;3493630;28;20049;-41
2020/12/10 06:02:41;;;;;;;26.50;9.85;;;;;;;-5.97;78.12;100224.03;3493270;28;20056;-41
2020/12/10 06:04:23;;;;;;;27.30;9.48;;;;;;;-5.94;78.12;100226.81;3494699;28;20041;-41
2020/12/10 06:06:06;;;;;;;25.20;10.57;;;;;;;-5.91;78.24;100229.59;3492662;28;20094;-40
2020/12/10 06:08:01;;;;;;;21.17;9.75;;;;;;;-5.89;78.47;100228.09;3493122;28;20092;-41
2020/12/10 06:09:42;;;;;;;27.05;10.82;;;;;;;-5.87;78.55;100215.59;3485923;28;20478;-55
2020/12/10 06:11:24;;;;;;;23.20;9.70;;;;;;;-5.85;78.54;100211.56;3485492;28;20516;-54
2020/12/10 06:13:07;;;;;;;22.58;9.23;;;;;;;-5.84;78.57;100200.72;3494892;28;20051;-53
2020/12/10 06:14:54;;;;;;;30.73;11.18;;;;;;;-5.75;79.34;100203.16;3493994;28;20072;-52
2020/12/10 06:16:35;;;;;;;26.10;10.13;;;;;;;-5.68;78.96;100200.41;3495858;28;20056;-51
2020/12/10 06:18:17;;;;;;;22.25;10.35;;;;;;;-5.65;78.92;100189.66;3494161;28;20524;-54
2020/12/10 06:19:58;;;;;;;24.27;10.02;;;;;;;-5.62;78.95;100192.47;3495650;28;20142;-52
2020/12/10 06:21:43;;;;;;;26.98;11.63;;;;;;;-5.59;79.11;100186.03;3493764;28;20555;-52
2020/12/10 06:23:33;;;;;;;25.35;11.07;;;;;;;-5.56;79.09;100191.34;3495431;28;20051;-53
2020/12/10 06:25:28;;;;;;;29.98;11.02;;;;;;;-5.54;79.12;100194.00;3491614;28;20049;-40
2020/12/10 06:27:27;;;;;;;24.13;10.68;;;;;;;-5.50;79.16;100190.97;3495829;28;20087;-54
2020/12/10 06:29:34;;;;;;;22.52;10.10;;;;;;;-5.47;79.12;100191.25;3494411;28;20068;-40
2020/12/10 06:31:16;;;;;;;29.80;11.85;;;;;;;-5.44;79.23;100195.66;3478585;28;20053;-53
2020/12/10 06:32:57;;;;;;;26.20;11.63;;;;;;;-5.43;79.09;100195.78;3495653;28;21496;-55
2020/12/10 06:34:47;;;;;;;26.48;10.43;;;;;;;-5.42;78.94;100199.19;3491425;28;20056;-54
2020/12/10 06:36:29;;;;;;;25.92;11.20;;;;;;;-5.40;79.02;100193.53;3496137;28;20041;-54
2020/12/10 06:38:11;;;;;;;24.80;10.50;;;;;;;-5.38;78.87;100191.16;3491554;28;20041;-54
2020/12/10 06:39:55;;;;;;;22.10;9.57;;;;;;;-5.36;78.89;100187.09;3497181;28;20462;-54
2020/12/10 06:41:59;;;;;;;24.50;11.52;;;;;;;-5.35;78.83;100183.81;3491680;28;20045;-51
2020/12/10 06:43:41;;;;;;;26.83;11.03;;;;;;;-5.32;78.77;100184.97;3493903;28;20049;-54
2020/12/10 06:45:30;;;;;;;31.17;12.02;;;;;;;-5.32;78.57;100177.38;3493009;28;20121;-55
2020/12/10 06:47:12;;;;;;;30.35;12.50;;;;;;;-5.30;78.55;100174.97;3494027;28;20566;-55
2020/12/10 06:48:56;;;;;;;34.00;12.40;;;;;;;-5.32;78.46;100167.28;3490848;28;20045;-53
2020/12/10 06:50:39;;;;;;;25.13;10.30;;;;;;;-5.31;78.30;100163.09;3494522;28;20053;-55
2020/12/10 06:52:21;;;;;;;32.08;11.75;;;;;;;-5.29;78.45;100170.03;3492910;28;20361;-51
2020/12/10 06:54:09;;;;;;;28.58;10.90;;;;;;;-5.29;78.61;100175.09;3493230;28;20049;-54
2020/12/10 06:56:02;;;;;;;26.33;11.13;;;;;;;-5.26;78.68;100183.69;3495456;28;20056;-52
2020/12/10 06:58:00;;;;;;;28.63;11.38;;;;;;;-5.26;78.64;100178.63;3492011;28;20502;-53
2020/12/10 06:59:43;;;;;;;34.05;11.48;;;;;;;-5.25;78.84;100178.75;3494911;28;20056;-52
2020/12/10 07:01:34;;;;;;;29.08;11.40;;;;;;;-5.23;79.14;100174.72;3492347;28;20087;-51
2020/12/10 07:03:22;;;;;;;28.27;10.82;;;;;;;-5.22;78.91;100178.16;3497288;28;20044;-54
2020/12/10 07:05:03;;;;;;;33.53;11.77;;;;;;;-5.21;79.04;100173.22;3492641;28;20078;-54
2020/12/10 07:06:45;;;;;;;26.88;11.02;;;;;;;-5.20;79.00;100177.50;3496679;28;20053;-54
2020/12/10 07:08:26;;;;;;;27.88;11.75;;;;;;;-5.19;78.94;100174.22;3492505;28;20460;-53
2020/12/10 07:10:08;;;;;;;25.20;10.68;;;;;;;-5.17;78.98;100175.25;3496224;28;20098;-41
2020/12/10 07:11:49;;;;;;;27.65;11.55;;;;;;;-5.16;78.93;100177.03;3492319;28;20458;-52
2020/12/10 07:13:31;;;;;;;22.65;11.80;;;;;;;-5.17;78.77;100175.25;3496036;28;20076;-52
2020/12/10 07:15:14;;;;;;;31.77;12.15;;;;;;;-5.17;78.90;100174.38;3492352;28;20053;-54
2020/12/10 07:16:56;;;;;;;30.98;11.73;;;;;;;-5.16;79.06;100177.03;3495296;28;20053;-54
2020/12/10 07:18:38;;;;;;;26.58;11.68;;;;;;;-5.15;78.83;100167.78;3493082;28;20131;-41
2020/12/10 07:20:20;;;;;;;31.10;11.10;;;;;;;-5.14;79.06;100172.97;3494810;28;20497;-52
2020/12/10 07:22:02;;;;;;;27.35;11.15;;;;;;;-5.13;78.91;100178.91;3493820;28;20044;-40
2020/12/10 07:23:43;;;;;;;28.00;11.63;;;;;;;-5.12;78.98;100168.06;3493617;28;20048;-40
2020/12/10 07:25:25;;;;;;;28.05;11.65;;;;;;;-5.12;78.85;100171.47;3494546;28;20048;-40
2020/12/10 07:27:10;;;;;;;33.28;13.65;;;;;;;-5.08;79.02;100167.53;3492510;28;20048;-40
2020/12/10 07:28:52;;;;;;;32.92;15.20;;;;;;;-5.04;79.00;100173.75;3494882;28;20060;-40
2020/12/10 07:30:33;;;;;;;30.35;12.65;;;;;;;-5.02;79.31;100165.50;3491461;28;20398;-40
2020/12/10 07:32:16;;;;;;;32.00;12.98;;;;;;;-4.99;79.30;100165.78;3491825;28;20048;-40
2020/12/10 07:33:59;;;;;;;25.83;11.73;;;;;;;-4.93;79.28;100162.81;3491829;28;20124;-40
2020/12/10 07:35:41;;;;;;;31.38;11.57;;;;;;;-4.90;79.20;100163.06;3496597;28;20106;-40
2020/12/10 07:37:24;;;;;;;35.55;13.15;;;;;;;-4.89;79.01;100159.81;3492201;28;20193;-40
2020/12/10 07:39:05;;;;;;;31.67;12.88;;;;;;;-4.88;78.85;100164.09;3496869;28;20052;-40
2020/12/10 07:40:54;;;;;;;34.05;12.65;;;;;;;-4.85;78.85;100171.06;3490981;28;20044;-40
2020/12/10 07:42:35;;;;;;;27.42;12.48;;;;;;;-4.85;79.03;100171.06;3497030;28;20087;-41
2020/12/10 07:44:24;;;;;;;31.55;11.98;;;;;;;-4.84;78.98;100173.72;3490554;28;20417;-40
2020/12/10 07:46:05;;;;;;;23.13;10.38;;;;;;;-4.84;78.93;100173.72;3495809;28;20044;-40
2020/12/10 07:47:57;;;;;;;24.27;11.13;;;;;;;-4.81;78.87;100168.00;3486661;28;20053;-40
2020/12/10 07:49:40;;;;;;;32.28;12.38;;;;;;;-4.81;78.75;100173.94;3483839;28;20087;-40
2020/12/10 07:51:22;;;;;;;26.33;11.90;;;;;;;-4.80;78.60;100172.31;3492026;28;20094;-40